createdAt,value
2022-08-05T00:00:51.088Z,100408.84
2022-08-05T00:03:52.827Z,100409.41
2022-08-05T00:06:54.402Z,100400.91
2022-08-05T00:09:57.482Z,100411.38
2022-08-05T00:13:00.203Z,100408.91
2022-08-05T00:16:01.908Z,100419.34
2022-08-05T00:19:04.791Z,100429.31
2022-08-05T00:22:11.334Z,100429.16
2022-08-05T00:25:13.380Z,100433.47
2022-08-05T00:28:29.454Z,100453.13
2022-08-05T00:31:53.762Z,100437.50
2022-08-05T00:35:06.583Z,100425.91
2022-08-05T00:38:09.571Z,100422.88
2022-08-05T00:41:11.874Z,100421.56
2022-08-05T00:44:13.682Z,100422.56
2022-08-05T00:47:16.427Z,100420.59
2022-08-05T00:50:18.768Z,100414.28
2022-08-05T00:54:00.466Z,100409.56
2022-08-05T00:56:51.867Z,100427.31
2022-08-05T00:59:54.438Z,100424.59
2022-08-05T01:02:57.505Z,100415.75
2022-08-05T01:06:01.552Z,100408.94
2022-08-05T01:09:06.219Z,100406.28
2022-08-05T01:12:18.592Z,100414.28
2022-08-05T01:15:36.141Z,100404.28
2022-08-05T01:18:43.202Z,100420.13
2022-08-05T01:22:15.409Z,100435.16
2022-08-05T01:25:53.368Z,100430.25
2022-08-05T01:29:09.846Z,100422.06
2022-08-05T01:32:18.651Z,100411.69
2022-08-05T01:35:50.920Z,100419.16
2022-08-05T01:38:50.901Z,100419.53
2022-08-05T01:41:54.345Z,100418.69
2022-08-05T01:44:59.205Z,100426.88
2022-08-05T01:48:03.133Z,100426.88
2022-08-05T01:51:14.556Z,100407.47
2022-08-05T01:54:19.480Z,100385.00
2022-08-05T01:58:09.489Z,100387.06
2022-08-05T02:00:56.672Z,100389.31
2022-08-05T02:04:01.506Z,100423.19
2022-08-05T02:07:03.574Z,100436.63
2022-08-05T02:10:08.943Z,100404.97
2022-08-05T02:13:27.882Z,100396.31
2022-08-05T02:16:52.241Z,100317.72
2022-08-05T02:20:03.077Z,100356.72
2022-08-05T02:23:09.703Z,100339.09
2022-08-05T02:26:17.074Z,100335.19
2022-08-05T02:29:26.002Z,100351.22
2022-08-05T02:32:48.127Z,100379.16
2022-08-05T02:35:56.286Z,100385.94
2022-08-05T02:39:03.048Z,100391.03
2022-08-05T02:42:06.950Z,100342.78
2022-08-05T02:45:11.465Z,100317.66
2022-08-05T02:48:14.391Z,100315.47
2022-08-05T02:51:19.073Z,100291.88
2022-08-05T02:54:35.007Z,100281.00
2022-08-05T02:58:10.936Z,100283.72
2022-08-05T03:01:02.723Z,100299.00
2022-08-05T03:04:14.215Z,100305.13
2022-08-05T03:07:24.735Z,100307.47
2022-08-05T03:10:44.495Z,100317.69
2022-08-05T03:14:07.960Z,100326.19
2022-08-05T03:17:09.866Z,100333.84
2022-08-05T03:20:12.060Z,100347.59
2022-08-05T03:23:15.806Z,100346.56
2022-08-05T03:26:31.582Z,100360.72
2022-08-05T03:29:45.734Z,100369.38
2022-08-05T03:32:56.280Z,100362.56
2022-08-05T03:35:58.842Z,100362.56
2022-08-05T03:39:07.566Z,100372.59
2022-08-05T03:42:10.060Z,100365.63
2022-08-05T03:45:21.553Z,100346.75
2022-08-05T03:48:24.971Z,100341.16
2022-08-05T03:52:50.440Z,100345.75
2022-08-05T03:56:04.085Z,100338.59
2022-08-05T03:58:33.373Z,100350.03
2022-08-05T04:01:39.777Z,100353.59
2022-08-05T04:04:44.893Z,100351.53
2022-08-05T04:07:57.205Z,100355.13
2022-08-05T04:11:01.875Z,100361.56
2022-08-05T04:14:04.857Z,100369.72
2022-08-05T04:17:08.888Z,100371.44
2022-08-05T04:20:20.394Z,100381.09
2022-08-05T04:24:05.695Z,100370.75
2022-08-05T04:26:47.821Z,100389.25
2022-08-05T04:29:49.523Z,100393.00
2022-08-05T04:32:51.921Z,100394.66
2022-08-05T04:36:16.472Z,100386.88
2022-08-05T04:39:16.667Z,100388.59
2022-08-05T04:42:18.503Z,100392.63
2022-08-05T04:45:47.694Z,100397.72
2022-08-05T04:48:48.752Z,100396.22
2022-08-05T04:52:00.524Z,100410.66
2022-08-05T04:55:05.339Z,100406.75
2022-08-05T04:58:20.196Z,100404.38
2022-08-05T05:02:07.981Z,100399.63
2022-08-05T05:04:49.802Z,100399.97
2022-08-05T05:07:52.818Z,100386.19
2022-08-05T05:10:58.143Z,100396.56
2022-08-05T05:14:00.791Z,100395.53
2022-08-05T05:17:07.489Z,100402.34
2022-08-05T05:20:12.508Z,100400.66
2022-08-05T05:23:19.927Z,100404.03
2022-08-05T05:26:28.172Z,100403.03
2022-08-05T05:30:04.581Z,100412.38
2022-08-05T05:32:56.558Z,100413.56
2022-08-05T05:35:58.391Z,100413.38
2022-08-05T05:39:03.597Z,100417.97
2022-08-05T05:42:06.087Z,100421.88
2022-08-05T05:45:09.268Z,100431.22
2022-08-05T05:48:11.060Z,100434.78
2022-08-05T05:51:20.193Z,100455.69
2022-08-05T05:54:22.050Z,100462.16
2022-08-05T05:57:52.101Z,100473.53
2022-08-05T06:00:54.790Z,100492.56
2022-08-05T06:04:02.195Z,100509.38
2022-08-05T06:07:05.737Z,100538.59
2022-08-05T06:10:10.529Z,100564.72
2022-08-05T06:13:12.469Z,100570.13
2022-08-05T06:16:30.596Z,100485.16
2022-08-05T06:19:34.745Z,100457.16
2022-08-05T06:22:37.461Z,100459.06
2022-08-05T06:26:12.812Z,100461.03
2022-08-05T06:29:06.968Z,100457.63
2022-08-05T06:32:29.164Z,100439.50
2022-08-05T06:36:07.341Z,100435.22
2022-08-05T06:38:54.702Z,100427.28
2022-08-05T06:42:16.980Z,100424.38
2022-08-05T06:45:44.571Z,100419.81
2022-08-05T06:48:56.065Z,100409.13
2022-08-05T06:52:01.099Z,100416.09
2022-08-05T06:55:02.906Z,100404.22
2022-08-05T06:58:29.804Z,100405.59
2022-08-05T07:01:27.692Z,100409.84
2022-08-05T07:04:34.217Z,100404.41
2022-08-05T07:07:43.906Z,100421.06
2022-08-05T07:10:52.888Z,100421.06
2022-08-05T07:14:20.792Z,100427.00
2022-08-05T07:18:00.539Z,100424.47
2022-08-05T07:20:53.314Z,100438.22
2022-08-05T07:23:55.292Z,100440.09
2022-08-05T07:26:57.035Z,100441.16
2022-08-05T07:30:27.815Z,100459.84
2022-08-05T07:33:37.119Z,100453.91
2022-08-05T07:36:39.338Z,100450.19
2022-08-05T07:40:04.611Z,100431.69
2022-08-05T07:43:04.754Z,100463.25
2022-08-05T07:46:25.207Z,100445.41
2022-08-05T07:49:27.671Z,100448.47
2022-08-05T07:52:29.657Z,100448.94
2022-08-05T07:56:05.232Z,100436.53
2022-08-05T07:58:57.456Z,100425.84
2022-08-05T08:02:03.227Z,100407.19
2022-08-05T08:05:05.549Z,100418.25
2022-08-05T08:08:07.231Z,100425.75
2022-08-05T08:11:16.067Z,100425.59
2022-08-05T08:14:19.038Z,100439.16
2022-08-05T08:17:21.279Z,100432.72
2022-08-05T08:20:59.806Z,100438.66
2022-08-05T08:24:03.101Z,100437.78
2022-08-05T08:27:07.400Z,100439.16
2022-08-05T08:30:27.741Z,100443.91
2022-08-05T08:33:35.980Z,100468.00
2022-08-05T08:36:48.961Z,100479.19
2022-08-05T08:39:54.513Z,100488.19
2022-08-05T08:42:56.794Z,100484.28
2022-08-05T08:46:01.572Z,100474.75
2022-08-05T08:50:14.664Z,100484.28
2022-08-05T08:52:31.307Z,100493.94
2022-08-05T08:56:03.718Z,100503.28
2022-08-05T08:58:59.914Z,100506.00
2022-08-05T09:02:08.442Z,100502.44
2022-08-05T09:05:16.298Z,100513.63
2022-08-05T09:08:19.730Z,100517.19
2022-08-05T09:11:52.037Z,100528.56
2022-08-05T09:14:58.095Z,100524.38
2022-08-05T09:18:09.005Z,100521.84
2022-08-05T09:21:11.468Z,100525.25
2022-08-05T09:24:22.386Z,100520.19
2022-08-05T09:28:04.024Z,100522.09
2022-08-05T09:31:22.230Z,100524.66
2022-08-05T09:34:26.620Z,100532.78
2022-08-05T09:38:16.649Z,100535.88
2022-08-05T09:40:52.198Z,100544.69
2022-08-05T09:43:55.032Z,100540.78
2022-08-05T09:47:10.374Z,100541.66
2022-08-05T09:50:38.231Z,100542.34
2022-08-05T09:53:54.336Z,100540.78
2022-08-05T09:57:01.818Z,100556.81
2022-08-05T10:00:12.809Z,100545.97
2022-08-05T10:03:16.672Z,100546.81
2022-08-05T10:06:21.971Z,100545.78
2022-08-05T10:09:28.239Z,100540.78
2022-08-05T10:12:49.445Z,100540.78
2022-08-05T10:15:52.069Z,100553.34
2022-08-05T10:18:55.546Z,100545.19
2022-08-05T10:21:59.525Z,100549.75
2022-08-05T10:25:01.344Z,100572.84
2022-08-05T10:28:13.382Z,100633.22
2022-08-05T10:32:52.722Z,100597.34
2022-08-05T10:34:42.008Z,100583.19
2022-08-05T10:37:45.262Z,100605.56
2022-08-05T10:40:58.193Z,100608.25
2022-08-05T10:44:06.222Z,100624.88
2022-08-05T10:47:26.140Z,100625.34
2022-08-05T10:50:36.872Z,100618.00
2022-08-05T10:54:00.937Z,100630.06
2022-08-05T10:57:03.886Z,100627.50
2022-08-05T11:00:23.546Z,100632.09
2022-08-05T11:03:27.128Z,100632.25
2022-08-05T11:06:31.149Z,100632.78
2022-08-05T11:09:51.150Z,100627.34
2022-08-05T11:13:06.870Z,100638.06
2022-08-05T11:16:47.470Z,100640.00
2022-08-05T11:20:10.966Z,100639.69
2022-08-05T11:23:33.502Z,100635.84
2022-08-05T11:27:51.537Z,100638.28
2022-08-05T11:30:58.713Z,100644.09
2022-08-05T11:34:03.719Z,100641.75
2022-08-05T11:38:28.478Z,100637.84
2022-08-05T11:41:00.796Z,100641.50
2022-08-05T11:44:40.373Z,100654.06
2022-08-05T11:47:48.593Z,100660.66
2022-08-05T11:50:53.164Z,100668.75
2022-08-05T11:53:56.247Z,100665.81
2022-08-05T11:56:58.369Z,100670.88
2022-08-05T12:00:04.015Z,100682.63
2022-08-05T12:03:23.873Z,100692.97
2022-08-05T12:06:35.870Z,100698.59
2022-08-05T12:09:53.332Z,100710.25
2022-08-05T12:13:03.188Z,100701.84
2022-08-05T12:16:26.967Z,100721.50
2022-08-05T12:20:26.677Z,100731.97
2022-08-05T12:22:51.815Z,100733.28
2022-08-05T12:25:56.634Z,100734.00
2022-08-05T12:28:59.003Z,100741.13
2022-08-05T12:32:05.517Z,100749.25
2022-08-05T12:35:09.649Z,100751.13
2022-08-05T12:38:11.715Z,100755.06
2022-08-05T12:41:16.897Z,100748.03
2022-08-05T12:44:28.673Z,100751.75
2022-08-05T12:47:36.176Z,100754.31
2022-08-05T12:50:38.611Z,100761.97
2022-08-05T12:53:44.152Z,100757.41
2022-08-05T12:57:09.255Z,100766.56
2022-08-05T13:02:02.059Z,100764.56
2022-08-05T13:03:48.894Z,100773.28
2022-08-05T13:06:53.610Z,100771.84
2022-08-05T13:09:58.962Z,100762.59
2022-08-05T13:13:06.490Z,100767.25
2022-08-05T13:16:15.482Z,100771.66
2022-08-05T13:19:24.012Z,100774.56
2022-08-05T13:22:29.671Z,100769.59
2022-08-05T13:25:51.297Z,100772.31
2022-08-05T13:28:53.531Z,100769.28
2022-08-05T13:32:03.705Z,100767.41
2022-08-05T13:35:07.649Z,100778.59
2022-08-05T13:38:10.203Z,100789.19
2022-08-05T13:41:23.917Z,100792.50
2022-08-05T13:44:39.155Z,100804.66
2022-08-05T13:48:09.961Z,100812.75
2022-08-05T13:51:10.436Z,100825.41
2022-08-05T13:54:13.668Z,100819.25
2022-08-05T13:57:17.383Z,100824.13
2022-08-05T14:00:26.921Z,100824.88
2022-08-05T14:03:30.470Z,100832.19
2022-08-05T14:06:34.438Z,100820.72
2022-08-05T14:09:43.022Z,100826.69
2022-08-05T14:12:48.849Z,100833.69
2022-08-05T14:16:09.046Z,100840.66
2022-08-05T14:19:12.645Z,100836.47
2022-08-05T14:22:14.496Z,100840.75
2022-08-05T14:25:21.905Z,100841.44
2022-08-05T14:28:26.822Z,100846.03
2022-08-05T14:31:54.540Z,100851.00
2022-08-05T14:34:50.731Z,100854.78
2022-08-05T14:37:55.453Z,100847.38
2022-08-05T14:40:57.551Z,100855.13
2022-08-05T14:44:09.602Z,100849.75
2022-08-05T14:47:11.789Z,100846.94
2022-08-05T14:50:18.204Z,100854.78
2022-08-05T14:53:20.678Z,100850.59
2022-08-05T14:56:23.670Z,100855.72
2022-08-05T14:59:29.571Z,100857.63
2022-08-05T15:02:37.275Z,100858.81
2022-08-05T15:06:12.769Z,100857.47
2022-08-05T15:09:04.017Z,100859.34
2022-08-05T15:12:06.777Z,100862.97
2022-08-05T15:15:15.378Z,100873.22
2022-08-05T15:18:17.516Z,100866.59
2022-08-05T15:21:21.105Z,100869.16
2022-08-05T15:24:22.939Z,100866.81
2022-08-05T15:27:25.607Z,100865.66
2022-08-05T15:30:28.802Z,100863.59
2022-08-05T15:34:05.591Z,100869.03
2022-08-05T15:36:52.253Z,100865.69
2022-08-05T15:40:59.325Z,100860.31
2022-08-05T15:43:20.615Z,100870.75
2022-08-05T15:46:24.610Z,100862.09
2022-08-05T15:49:53.609Z,100866.69
2022-08-05T15:52:54.183Z,100863.97
2022-08-05T15:56:01.396Z,100866.72
2022-08-05T15:59:04.968Z,100859.91
2022-08-05T16:02:09.433Z,100866.38
2022-08-05T16:05:16.439Z,100857.16
2022-08-05T16:08:18.124Z,100863.81
2022-08-05T16:11:39.911Z,100862.50
2022-08-05T16:14:45.201Z,100861.81
2022-08-05T16:17:58.023Z,100866.06
2022-08-05T16:21:04.395Z,100863.31
2022-08-05T16:24:07.639Z,100870.28
2022-08-05T16:27:16.144Z,100873.00
2022-08-05T16:30:26.399Z,100875.38
2022-08-05T16:33:32.312Z,100871.47
2022-08-05T16:36:43.570Z,100872.69
2022-08-05T16:40:05.905Z,100869.47
2022-08-05T16:43:07.091Z,100876.94
2022-08-05T16:46:23.456Z,100879.13
2022-08-05T16:49:26.972Z,100878.41
2022-08-05T16:52:33.584Z,100878.69
2022-08-05T16:55:47.059Z,100892.81
2022-08-05T16:58:49.259Z,100892.63
2022-08-05T17:01:53.785Z,100887.38
2022-08-05T17:04:57.419Z,100895.03
2022-08-05T17:07:59.041Z,100899.28
2022-08-05T17:11:01.345Z,100900.19
2022-08-05T17:14:06.084Z,100900.84
2022-08-05T17:17:09.436Z,100906.63
2022-08-05T17:20:16.945Z,100908.34
2022-08-05T17:23:42.029Z,100904.44
2022-08-05T17:26:40.953Z,100918.34
2022-08-05T17:29:42.715Z,100921.19
2022-08-05T17:32:44.534Z,100926.53
2022-08-05T17:36:07.552Z,100923.56
2022-08-05T17:39:24.425Z,100936.88
2022-08-05T17:42:32.358Z,100945.13
2022-08-05T17:45:38.723Z,100946.94
2022-08-05T17:48:40.561Z,100950.56
2022-08-05T17:51:46.619Z,100959.19
2022-08-05T17:54:52.410Z,100959.97
2022-08-05T17:57:55.300Z,100969.91
2022-08-05T18:00:57.085Z,100975.09
2022-08-05T18:04:04.631Z,100980.09
2022-08-05T18:07:07.614Z,100988.69
2022-08-05T18:10:20.952Z,100997.59
2022-08-05T18:13:23.102Z,100996.66
2022-08-05T18:16:27.479Z,101000.66
2022-08-05T18:19:29.933Z,101009.72
2022-08-05T18:22:46.030Z,101014.03
2022-08-05T18:25:57.454Z,101020.34
2022-08-05T18:29:03.986Z,101038.94
2022-08-05T18:32:12.900Z,101044.25
2022-08-05T18:35:16.218Z,101048.00
2022-08-05T18:38:25.944Z,101055.72
2022-08-05T18:41:57.291Z,101055.44
2022-08-05T18:44:55.678Z,101059.03
2022-08-05T18:47:58.032Z,101068.16
2022-08-05T18:52:04.883Z,101076.00
2022-08-05T18:54:45.871Z,101077.69
2022-08-05T18:57:53.090Z,101072.00
2022-08-05T19:00:56.701Z,101086.28
2022-08-05T19:03:58.345Z,101083.88
2022-08-05T19:07:00.083Z,101090.84
2022-08-05T19:10:02.391Z,101090.81
2022-08-05T19:13:15.765Z,101098.63
2022-08-05T19:16:22.083Z,101101.06
2022-08-05T19:19:31.770Z,101111.59
2022-08-05T19:22:33.433Z,101114.97
2022-08-05T19:25:41.960Z,101118.91
2022-08-05T19:28:45.448Z,101126.09
2022-08-05T19:31:51.040Z,101138.34
2022-08-05T19:34:55.207Z,101141.13
2022-08-05T19:38:06.794Z,101152.75
2022-08-05T19:41:11.453Z,101150.00
2022-08-05T19:44:14.447Z,101160.88
2022-08-05T19:47:16.642Z,101159.22
2022-08-05T19:50:20.021Z,101167.00
2022-08-05T19:54:04.289Z,101173.78
2022-08-05T19:56:43.471Z,101171.00
2022-08-05T19:59:55.306Z,101177.78
2022-08-05T20:03:13.073Z,101188.50
2022-08-05T20:06:15.862Z,101181.88
2022-08-05T20:09:30.217Z,101201.34
2022-08-05T20:12:51.937Z,101208.69
2022-08-05T20:15:57.468Z,101213.38
2022-08-05T20:19:00.715Z,101221.81
2022-08-05T20:22:05.926Z,101219.63
2022-08-05T20:25:11.358Z,101224.56
2022-08-05T20:28:16.205Z,101225.75
2022-08-05T20:31:21.628Z,101221.97
2022-08-05T20:34:29.927Z,101238.69
2022-08-05T20:38:06.035Z,101251.72
2022-08-05T20:40:53.728Z,101253.19
2022-08-05T20:43:58.648Z,101256.13
2022-08-05T20:47:05.375Z,101264.59
2022-08-05T20:50:11.457Z,101259.53
2022-08-05T20:53:16.210Z,101257.44
2022-08-05T20:56:42.190Z,101260.75
2022-08-05T21:00:11.068Z,101263.94
2022-08-05T21:03:08.050Z,101268.19
2022-08-05T21:06:27.553Z,101260.59
2022-08-05T21:09:30.300Z,101267.31
2022-08-05T21:12:36.646Z,101261.53
2022-08-05T21:15:40.862Z,101262.72
2022-08-05T21:18:46.263Z,101270.44
2022-08-05T21:21:50.792Z,101266.47
2022-08-05T21:24:54.414Z,101269.28
2022-08-05T21:27:58.659Z,101266.94
2022-08-05T21:31:00.264Z,101280.63
2022-08-05T21:34:01.900Z,101279.91
2022-08-05T21:37:04.905Z,101279.25
2022-08-05T21:40:07.389Z,101287.47
2022-08-05T21:43:24.667Z,101280.59
2022-08-05T21:46:26.696Z,101284.47
2022-08-05T21:49:58.637Z,101283.63
2022-08-05T21:52:52.891Z,101281.25
2022-08-05T21:56:05.295Z,101288.50
2022-08-05T21:59:24.049Z,101300.50
2022-08-05T22:02:27.306Z,101302.53
2022-08-05T22:05:29.097Z,101297.38
2022-08-05T22:08:52.187Z,101302.66
2022-08-05T22:11:54.640Z,101300.06
2022-08-05T22:14:58.709Z,101299.97
2022-08-05T22:18:01.890Z,101304.63
2022-08-05T22:21:04.750Z,101313.66
2022-08-05T22:24:40.425Z,101308.41
2022-08-05T22:28:08.744Z,101307.97
2022-08-05T22:31:08.277Z,101311.00
2022-08-05T22:34:25.719Z,101316.75
2022-08-05T22:37:58.236Z,101324.41
2022-08-05T22:40:55.000Z,101318.47
2022-08-05T22:43:59.239Z,101333.13
2022-08-05T22:47:00.824Z,101331.53
2022-08-05T22:50:23.593Z,101338.00
2022-08-05T22:53:35.840Z,101339.97
2022-08-05T22:56:39.947Z,101347.38
2022-08-05T22:59:45.010Z,101348.47
2022-08-05T23:02:53.583Z,101352.22
2022-08-05T23:05:55.975Z,101347.94
2022-08-05T23:08:57.562Z,101348.06
2022-08-05T23:12:20.308Z,101346.44
2022-08-05T23:15:29.908Z,101342.84
2022-08-05T23:18:36.705Z,101351.06
2022-08-05T23:21:42.597Z,101351.16
2022-08-05T23:24:51.103Z,101353.00
2022-08-05T23:28:00.414Z,101358.38
2022-08-05T23:31:17.535Z,101360.31
2022-08-05T23:34:24.609Z,101360.44
2022-08-05T23:37:26.752Z,101365.06
2022-08-05T23:40:38.265Z,101365.28
2022-08-05T23:44:05.677Z,101373.47
2022-08-05T23:47:02.666Z,101375.53
2022-08-05T23:50:20.111Z,101381.00
2022-08-05T23:53:22.799Z,101378.53
2022-08-05T23:56:27.172Z,101393.91
